createdAt,value
2023-02-23T00:00:57.630Z,999.97
2023-02-23T00:01:57.604Z,999.96
2023-02-23T00:02:57.709Z,999.95
2023-02-23T00:03:57.765Z,999.97
2023-02-23T00:04:57.572Z,999.97
2023-02-23T00:05:57.554Z,1000.00
2023-02-23T00:06:57.782Z,1000.00
2023-02-23T00:07:57.526Z,999.94
2023-02-23T00:08:57.695Z,999.94
2023-02-23T00:09:57.497Z,999.97
2023-02-23T00:10:57.483Z,999.99
2023-02-23T00:11:57.506Z,999.98
2023-02-23T00:12:57.475Z,999.98
2023-02-23T00:13:57.615Z,999.97
2023-02-23T00:14:57.434Z,999.90
2023-02-23T00:15:57.423Z,999.92
2023-02-23T00:16:57.424Z,999.95
2023-02-23T00:17:57.393Z,999.95
2023-02-23T00:18:57.429Z,999.97
2023-02-23T00:19:57.548Z,999.89
2023-02-23T00:20:57.370Z,999.95
2023-02-23T00:21:57.344Z,999.97
2023-02-23T00:22:57.331Z,999.97
2023-02-23T00:23:57.335Z,1000.00
2023-02-23T00:24:57.498Z,999.96
2023-02-23T00:25:57.282Z,1000.02
2023-02-23T00:26:57.296Z,999.96
2023-02-23T00:27:57.262Z,999.99
2023-02-23T00:28:57.252Z,999.94
2023-02-23T00:29:57.435Z,999.94
2023-02-23T00:30:59.612Z,999.91
2023-02-23T00:31:57.366Z,999.85
2023-02-23T00:32:57.202Z,999.91
2023-02-23T00:33:57.193Z,999.86
2023-02-23T00:34:57.182Z,999.88
2023-02-23T00:35:57.183Z,999.85
2023-02-23T00:36:57.157Z,999.83
2023-02-23T00:37:57.158Z,999.86
2023-02-23T00:38:57.133Z,999.84
2023-02-23T00:39:57.294Z,999.86
2023-02-23T00:40:57.110Z,999.85
2023-02-23T00:41:57.115Z,999.83
2023-02-23T00:42:57.093Z,999.87
2023-02-23T00:43:57.065Z,999.85
2023-02-23T00:44:57.242Z,999.87
2023-02-23T00:45:57.050Z,999.87
2023-02-23T00:46:57.051Z,999.79
2023-02-23T00:47:57.013Z,999.83
2023-02-23T00:48:57.005Z,999.87
2023-02-23T00:49:57.164Z,999.86
2023-02-23T00:50:56.984Z,999.89
2023-02-23T00:51:56.969Z,999.80
2023-02-23T00:52:56.955Z,999.88
2023-02-23T00:53:56.937Z,999.81
2023-02-23T00:54:56.948Z,999.93
2023-02-23T00:55:56.914Z,999.83
2023-02-23T00:56:56.908Z,999.82
2023-02-23T00:57:56.896Z,999.83
2023-02-23T00:58:56.899Z,999.93
2023-02-23T00:59:56.875Z,999.90
2023-02-23T01:00:56.864Z,999.87
2023-02-23T01:01:57.015Z,999.85
2023-02-23T01:02:56.822Z,999.90
2023-02-23T01:03:56.813Z,999.94
2023-02-23T01:04:56.800Z,999.92
2023-02-23T01:05:56.791Z,999.92
2023-02-23T01:06:56.767Z,999.91
2023-02-23T01:07:56.747Z,999.93
2023-02-23T01:08:56.758Z,999.90
2023-02-23T01:09:56.730Z,999.94
2023-02-23T01:10:56.735Z,999.94
2023-02-23T01:11:56.905Z,999.88
2023-02-23T01:12:56.698Z,999.91
2023-02-23T01:13:56.664Z,999.90
2023-02-23T01:14:56.676Z,999.91
2023-02-23T01:15:56.684Z,999.93
2023-02-23T01:16:56.641Z,999.90
2023-02-23T01:17:56.612Z,999.91
2023-02-23T01:18:56.628Z,999.82
2023-02-23T01:19:56.694Z,999.89
2023-02-23T01:20:56.594Z,999.88
2023-02-23T01:21:56.576Z,999.88
2023-02-23T01:22:56.587Z,999.89
2023-02-23T01:23:56.559Z,999.93
2023-02-23T01:24:56.534Z,999.80
2023-02-23T01:25:56.519Z,999.94
2023-02-23T01:26:56.520Z,999.91
2023-02-23T01:27:56.481Z,999.88
2023-02-23T01:28:56.481Z,999.93
2023-02-23T01:29:56.470Z,999.94
2023-02-23T01:30:56.506Z,999.94
2023-02-23T01:31:56.681Z,999.94
2023-02-23T01:32:56.465Z,999.92
2023-02-23T01:33:56.408Z,999.85
2023-02-23T01:34:56.473Z,999.85
2023-02-23T01:35:56.403Z,999.85
2023-02-23T01:36:56.552Z,999.91
2023-02-23T01:37:56.360Z,999.89
2023-02-23T01:38:56.348Z,999.89
2023-02-23T01:39:56.344Z,999.84
2023-02-23T01:40:56.331Z,999.86
2023-02-23T01:41:56.484Z,999.84
2023-02-23T01:42:56.493Z,999.85
2023-02-23T01:43:56.294Z,999.85
2023-02-23T01:44:56.266Z,999.90
2023-02-23T01:45:56.298Z,999.79
2023-02-23T01:46:56.246Z,999.81
2023-02-23T01:47:56.398Z,999.83
2023-02-23T01:48:56.232Z,999.90
2023-02-23T01:49:56.233Z,999.85
2023-02-23T01:50:56.193Z,999.83
2023-02-23T01:51:56.185Z,999.82
2023-02-23T01:52:56.336Z,999.84
2023-02-23T01:53:56.342Z,999.81
2023-02-23T01:54:56.141Z,999.79
2023-02-23T01:55:56.216Z,999.80
2023-02-23T01:56:56.115Z,999.79
2023-02-23T01:57:56.103Z,999.81
2023-02-23T01:58:56.270Z,999.79
2023-02-23T01:59:56.281Z,999.78
2023-02-23T02:00:56.065Z,999.82
2023-02-23T02:01:56.136Z,999.82
2023-02-23T02:02:56.044Z,999.90
2023-02-23T02:03:56.038Z,999.81
2023-02-23T02:04:56.231Z,999.79
2023-02-23T02:05:56.014Z,999.80
2023-02-23T02:06:55.983Z,999.82
2023-02-23T02:07:55.985Z,999.80
2023-02-23T02:08:55.951Z,999.79
2023-02-23T02:09:56.101Z,999.81
2023-02-23T02:10:55.998Z,999.83
2023-02-23T02:11:55.922Z,999.79
2023-02-23T02:12:55.923Z,999.80
2023-02-23T02:13:55.929Z,999.82
2023-02-23T02:14:55.933Z,999.75
2023-02-23T02:15:55.909Z,999.82
2023-02-23T02:16:55.871Z,999.71
2023-02-23T02:17:55.850Z,999.77
2023-02-23T02:18:55.834Z,999.82
2023-02-23T02:19:55.842Z,999.72
2023-02-23T02:20:55.811Z,999.77
2023-02-23T02:21:55.812Z,999.82
2023-02-23T02:22:55.782Z,999.68
2023-02-23T02:23:55.762Z,999.77
2023-02-23T02:24:55.847Z,999.73
2023-02-23T02:25:55.744Z,999.73
2023-02-23T02:26:55.742Z,999.71
2023-02-23T02:27:55.719Z,999.71
2023-02-23T02:28:55.700Z,999.67
2023-02-23T02:29:55.708Z,999.75
2023-02-23T02:30:55.697Z,999.74
2023-02-23T02:31:55.747Z,999.72
2023-02-23T02:32:55.647Z,999.70
2023-02-23T02:33:55.639Z,999.71
2023-02-23T02:34:55.657Z,999.73
2023-02-23T02:35:55.624Z,999.72
2023-02-23T02:36:55.589Z,999.67
2023-02-23T02:37:55.592Z,999.71
2023-02-23T02:38:55.567Z,999.71
2023-02-23T02:39:55.558Z,999.70
2023-02-23T02:40:55.570Z,999.66
2023-02-23T02:41:55.536Z,999.69
2023-02-23T02:42:55.532Z,999.70
2023-02-23T02:43:55.509Z,999.71
2023-02-23T02:44:55.499Z,999.68
2023-02-23T02:45:55.623Z,999.62
2023-02-23T02:46:55.474Z,999.63
2023-02-23T02:47:55.474Z,999.63
2023-02-23T02:48:55.458Z,999.70
2023-02-23T02:49:55.429Z,999.68
2023-02-23T02:50:55.467Z,999.59
2023-02-23T02:51:55.578Z,999.62
2023-02-23T02:52:55.414Z,999.55
2023-02-23T02:53:55.389Z,999.61
2023-02-23T02:54:55.377Z,999.54
2023-02-23T02:55:55.349Z,999.62
2023-02-23T02:56:55.376Z,999.56
2023-02-23T02:57:55.341Z,999.57
2023-02-23T02:58:55.323Z,999.62
2023-02-23T02:59:55.311Z,999.61
2023-02-23T03:00:55.306Z,999.62
2023-02-23T03:01:55.516Z,999.59
2023-02-23T03:02:55.294Z,999.61
2023-02-23T03:03:55.264Z,999.58
2023-02-23T03:04:55.312Z,999.60
2023-02-23T03:05:55.233Z,999.59
2023-02-23T03:06:55.228Z,999.62
2023-02-23T03:07:55.377Z,999.59
2023-02-23T03:08:55.198Z,999.60
2023-02-23T03:09:55.194Z,999.63
2023-02-23T03:10:55.169Z,999.62
2023-02-23T03:11:55.144Z,999.65
2023-02-23T03:12:55.333Z,999.65
2023-02-23T03:13:55.131Z,999.65
2023-02-23T03:14:55.128Z,999.63
2023-02-23T03:15:55.177Z,999.64
2023-02-23T03:16:55.108Z,999.66
2023-02-23T03:17:55.280Z,999.66
2023-02-23T03:18:55.257Z,999.64
2023-02-23T03:19:55.047Z,999.61
2023-02-23T03:20:55.058Z,999.74
2023-02-23T03:21:55.027Z,999.64
2023-02-23T03:22:55.014Z,999.63
2023-02-23T03:23:55.195Z,999.67
2023-02-23T03:24:54.987Z,999.70
2023-02-23T03:25:54.975Z,999.69
2023-02-23T03:26:54.964Z,999.62
2023-02-23T03:27:54.954Z,999.66
2023-02-23T03:28:55.125Z,999.65
2023-02-23T03:29:54.924Z,999.61
2023-02-23T03:30:55.156Z,999.65
2023-02-23T03:31:54.934Z,999.67
2023-02-23T03:32:54.883Z,999.72
2023-02-23T03:33:54.876Z,999.70
2023-02-23T03:34:54.877Z,999.63
2023-02-23T03:35:55.032Z,999.66
2023-02-23T03:36:54.837Z,999.68
2023-02-23T03:37:54.821Z,999.64
2023-02-23T03:38:54.816Z,999.67
2023-02-23T03:39:54.792Z,999.67
2023-02-23T03:40:54.832Z,999.68
2023-02-23T03:41:54.769Z,999.68
2023-02-23T03:42:54.777Z,999.70
2023-02-23T03:43:54.736Z,999.68
2023-02-23T03:44:54.732Z,999.71
2023-02-23T03:45:54.952Z,999.69
2023-02-23T03:46:54.884Z,999.71
2023-02-23T03:47:54.712Z,999.68
2023-02-23T03:48:54.695Z,999.71
2023-02-23T03:49:54.678Z,999.72
2023-02-23T03:50:54.653Z,999.68
2023-02-23T03:51:54.830Z,999.74
2023-02-23T03:52:54.813Z,999.79
2023-02-23T03:53:54.622Z,999.78
2023-02-23T03:54:54.609Z,999.70
2023-02-23T03:55:54.578Z,999.68
2023-02-23T03:56:54.578Z,999.69
2023-02-23T03:57:54.737Z,999.70
2023-02-23T03:58:54.550Z,999.66
2023-02-23T03:59:54.543Z,999.75
2023-02-23T04:00:54.546Z,999.71
2023-02-23T04:01:54.537Z,999.77
2023-02-23T04:02:54.684Z,999.72
2023-02-23T04:03:54.485Z,999.68
2023-02-23T04:04:54.472Z,999.69
2023-02-23T04:05:54.469Z,999.70
2023-02-23T04:06:54.468Z,999.67
2023-02-23T04:07:54.444Z,999.69
2023-02-23T04:08:54.645Z,999.71
2023-02-23T04:09:54.403Z,999.73
2023-02-23T04:10:54.413Z,999.77
2023-02-23T04:11:54.382Z,999.78
2023-02-23T04:12:54.402Z,999.75
2023-02-23T04:13:54.539Z,999.75
2023-02-23T04:14:54.371Z,999.71
2023-02-23T04:15:54.337Z,999.70
2023-02-23T04:16:54.314Z,999.72
2023-02-23T04:17:54.303Z,999.74
2023-02-23T04:18:54.476Z,999.77
2023-02-23T04:19:54.449Z,999.74
2023-02-23T04:20:54.301Z,999.87
2023-02-23T04:21:54.248Z,999.82
2023-02-23T04:22:54.250Z,999.82
2023-02-23T04:23:54.222Z,999.75
2023-02-23T04:24:54.392Z,999.81
2023-02-23T04:25:54.505Z,999.75
2023-02-23T04:26:54.190Z,999.85
2023-02-23T04:27:54.161Z,999.88
2023-02-23T04:28:54.177Z,999.79
2023-02-23T04:29:54.140Z,999.81
2023-02-23T04:30:54.393Z,999.84
2023-02-23T04:31:54.411Z,999.86
2023-02-23T04:32:54.122Z,999.87
2023-02-23T04:33:54.105Z,999.87
2023-02-23T04:34:54.149Z,999.87
2023-02-23T04:35:54.077Z,999.85
2023-02-23T04:36:54.244Z,999.87
2023-02-23T04:37:54.056Z,999.83
2023-02-23T04:38:54.030Z,999.85
2023-02-23T04:39:54.031Z,999.89
2023-02-23T04:40:54.011Z,999.90
2023-02-23T04:41:54.171Z,999.84
2023-02-23T04:42:54.025Z,999.88
2023-02-23T04:43:54.150Z,999.90
2023-02-23T04:44:53.976Z,999.82
2023-02-23T04:45:53.991Z,999.89
2023-02-23T04:46:53.954Z,999.88
2023-02-23T04:47:53.910Z,999.87
2023-02-23T04:48:53.920Z,999.89
2023-02-23T04:49:53.906Z,999.88
2023-02-23T04:50:53.921Z,999.87
2023-02-23T04:51:53.867Z,999.89
2023-02-23T04:52:53.861Z,999.85
2023-02-23T04:53:54.030Z,999.86
2023-02-23T04:54:53.842Z,999.90
2023-02-23T04:55:53.829Z,999.89
2023-02-23T04:56:53.802Z,999.89
2023-02-23T04:57:53.788Z,999.94
2023-02-23T04:58:53.959Z,999.91
2023-02-23T04:59:53.938Z,999.87
2023-02-23T05:00:53.749Z,999.95
2023-02-23T05:01:53.738Z,999.92
2023-02-23T05:02:53.736Z,999.87
2023-02-23T05:03:53.898Z,999.92
2023-02-23T05:04:53.734Z,1000.02
2023-02-23T05:05:53.680Z,999.98
2023-02-23T05:06:53.698Z,999.99
2023-02-23T05:07:53.673Z,999.91
2023-02-23T05:08:53.847Z,999.96
2023-02-23T05:09:53.648Z,999.94
2023-02-23T05:10:53.628Z,1000.12
2023-02-23T05:11:53.606Z,999.98
2023-02-23T05:12:53.599Z,1000.01
2023-02-23T05:13:53.756Z,1000.04
2023-02-23T05:14:53.620Z,1000.01
2023-02-23T05:15:53.768Z,999.95
2023-02-23T05:16:53.549Z,1000.00
2023-02-23T05:17:53.529Z,1000.11
2023-02-23T05:18:53.533Z,1000.07
2023-02-23T05:19:53.505Z,1000.09
2023-02-23T05:20:53.675Z,1000.01
2023-02-23T05:21:53.487Z,1000.02
2023-02-23T05:22:53.679Z,1000.08
2023-02-23T05:23:53.455Z,1000.08
2023-02-23T05:24:54.774Z,1000.04
2023-02-23T05:25:53.425Z,1000.02
2023-02-23T05:26:53.425Z,1000.03
2023-02-23T05:27:53.577Z,1000.08
2023-02-23T05:28:53.399Z,1000.09
2023-02-23T05:29:53.374Z,1000.11
2023-02-23T05:30:53.467Z,1000.07
2023-02-23T05:31:53.477Z,1000.10
2023-02-23T05:32:53.527Z,1000.10
2023-02-23T05:33:53.507Z,1000.07
2023-02-23T05:34:53.322Z,1000.09
2023-02-23T05:35:53.301Z,1000.11
2023-02-23T05:36:53.292Z,1000.00
2023-02-23T05:37:53.484Z,1000.12
2023-02-23T05:38:53.442Z,1000.13
2023-02-23T05:39:53.264Z,1000.08
2023-02-23T05:40:53.240Z,1000.08
2023-02-23T05:41:53.218Z,1000.17
2023-02-23T05:42:53.198Z,1000.10
2023-02-23T05:43:53.368Z,1000.18
2023-02-23T05:44:53.208Z,1000.13
2023-02-23T05:45:53.240Z,1000.07
2023-02-23T05:46:53.158Z,1000.08
2023-02-23T05:47:53.148Z,1000.09
2023-02-23T05:48:53.137Z,1000.08
2023-02-23T05:49:53.334Z,1000.09
2023-02-23T05:50:53.125Z,1000.17
2023-02-23T05:51:53.093Z,1000.16
2023-02-23T05:52:53.102Z,1000.11
2023-02-23T05:53:53.091Z,1000.15
2023-02-23T05:54:53.264Z,1000.19
2023-02-23T05:55:53.223Z,1000.12
2023-02-23T05:56:53.036Z,1000.15
2023-02-23T05:57:53.023Z,1000.17
2023-02-23T05:58:53.005Z,1000.14
2023-02-23T05:59:52.994Z,1000.16
2023-02-23T06:00:53.008Z,1000.14
2023-02-23T06:01:52.968Z,1000.17
2023-02-23T06:02:53.060Z,1000.13
2023-02-23T06:03:53.088Z,1000.17
2023-02-23T06:04:52.928Z,1000.21
2023-02-23T06:05:52.931Z,1000.13
2023-02-23T06:06:52.918Z,1000.15
2023-02-23T06:07:52.901Z,1000.14
2023-02-23T06:08:52.875Z,1000.17
2023-02-23T06:09:52.868Z,1000.19
2023-02-23T06:10:52.875Z,1000.21
2023-02-23T06:11:52.843Z,1000.19
2023-02-23T06:12:53.130Z,1000.24
2023-02-23T06:13:52.805Z,1000.19
2023-02-23T06:14:52.795Z,1000.19
2023-02-23T06:15:52.827Z,1000.26
2023-02-23T06:16:53.010Z,1000.25
2023-02-23T06:17:52.744Z,1000.20
2023-02-23T06:18:52.931Z,1000.28
2023-02-23T06:19:52.732Z,1000.28
2023-02-23T06:20:52.726Z,1000.32
2023-02-23T06:21:52.713Z,1000.26
2023-02-23T06:22:52.740Z,1000.29
2023-02-23T06:23:52.690Z,1000.28
2023-02-23T06:24:52.671Z,1000.30
2023-02-23T06:25:52.662Z,1000.31
2023-02-23T06:26:52.687Z,1000.31
2023-02-23T06:27:52.631Z,1000.36
2023-02-23T06:28:52.653Z,1000.39
2023-02-23T06:29:52.601Z,1000.32
2023-02-23T06:30:52.639Z,1000.37
2023-02-23T06:31:52.659Z,1000.34
2023-02-23T06:32:52.563Z,1000.37
2023-02-23T06:33:52.591Z,1000.33
2023-02-23T06:34:52.729Z,1000.35
2023-02-23T06:35:52.528Z,1000.42
2023-02-23T06:36:52.528Z,1000.41
2023-02-23T06:37:52.493Z,1000.38
2023-02-23T06:38:52.500Z,1000.36
2023-02-23T06:39:52.506Z,1000.42
2023-02-23T06:40:52.463Z,1000.43
2023-02-23T06:41:52.480Z,1000.41
2023-02-23T06:42:52.438Z,1000.45
2023-02-23T06:43:52.439Z,1000.42
2023-02-23T06:44:52.734Z,1000.47
2023-02-23T06:45:52.392Z,1000.43
2023-02-23T06:46:52.422Z,1000.50
2023-02-23T06:47:52.369Z,1000.54
2023-02-23T06:48:52.377Z,1000.55
2023-02-23T06:49:52.517Z,1000.54
2023-02-23T06:50:52.339Z,1000.59
2023-02-23T06:51:52.319Z,1000.51
2023-02-23T06:52:52.319Z,1000.58
2023-02-23T06:53:52.309Z,1000.57
2023-02-23T06:54:53.178Z,1000.60
2023-02-23T06:55:52.351Z,1000.53
2023-02-23T06:56:52.275Z,1000.63
2023-02-23T06:57:52.236Z,1000.63
2023-02-23T06:58:52.230Z,1000.66
2023-02-23T06:59:52.387Z,1000.64
2023-02-23T07:00:52.216Z,1000.63
2023-02-23T07:01:52.212Z,1000.70
2023-02-23T07:02:52.195Z,1000.71
2023-02-23T07:03:52.176Z,1000.67
2023-02-23T07:04:52.342Z,1000.66
2023-02-23T07:05:52.127Z,1000.69
2023-02-23T07:06:52.119Z,1000.71
2023-02-23T07:07:52.129Z,1000.75
2023-02-23T07:08:52.103Z,1000.74
2023-02-23T07:09:52.081Z,1000.72
2023-02-23T07:10:52.078Z,1000.79
2023-02-23T07:11:52.052Z,1000.73
2023-02-23T07:12:52.041Z,1000.79
2023-02-23T07:13:52.045Z,1000.75
2023-02-23T07:14:52.043Z,1000.76
2023-02-23T07:15:52.003Z,1000.74
2023-02-23T07:16:51.990Z,1000.83
2023-02-23T07:17:51.978Z,1000.79
2023-02-23T07:18:51.958Z,1000.79
2023-02-23T07:19:51.969Z,1000.85
2023-02-23T07:20:51.967Z,1000.89
2023-02-23T07:21:52.115Z,1000.86
2023-02-23T07:22:51.906Z,1000.84
2023-02-23T07:23:51.928Z,1000.87
2023-02-23T07:24:51.894Z,1000.89
2023-02-23T07:25:51.887Z,1000.90
2023-02-23T07:26:51.869Z,1000.88
2023-02-23T07:27:51.856Z,1000.92
2023-02-23T07:28:54.128Z,1000.83
2023-02-23T07:29:51.827Z,1000.95
2023-02-23T07:30:51.844Z,1000.89
2023-02-23T07:31:51.923Z,1000.87
2023-02-23T07:32:51.793Z,1000.91
2023-02-23T07:33:51.953Z,1000.89
2023-02-23T07:34:53.735Z,1000.92
2023-02-23T07:35:51.748Z,1000.93
2023-02-23T07:36:51.735Z,1000.91
2023-02-23T07:37:51.885Z,1000.98
2023-02-23T07:38:51.918Z,1000.96
2023-02-23T07:39:51.686Z,1000.93
2023-02-23T07:40:51.675Z,1000.95
2023-02-23T07:41:51.662Z,1000.96
2023-02-23T07:42:51.849Z,1001.02
2023-02-23T07:43:51.648Z,1000.97
2023-02-23T07:44:51.822Z,1000.96
2023-02-23T07:45:51.887Z,1001.00
2023-02-23T07:46:51.617Z,1001.01
2023-02-23T07:47:51.614Z,1000.94
2023-02-23T07:48:51.576Z,1001.00
2023-02-23T07:49:51.558Z,1000.96
2023-02-23T07:50:51.758Z,1000.99
2023-02-23T07:51:51.546Z,1000.97
2023-02-23T07:52:51.550Z,1000.98
2023-02-23T07:53:51.524Z,1001.03
2023-02-23T07:54:51.508Z,1001.01
2023-02-23T07:55:51.675Z,1000.99
2023-02-23T07:56:51.481Z,1001.04
2023-02-23T07:57:52.138Z,1001.00
2023-02-23T07:58:51.467Z,1001.07
2023-02-23T07:59:51.437Z,1001.11
2023-02-23T08:00:51.643Z,1001.07
2023-02-23T08:01:51.417Z,1001.16
2023-02-23T08:02:51.404Z,1001.10
2023-02-23T08:03:51.578Z,1001.16
2023-02-23T08:04:51.367Z,1001.17
2023-02-23T08:05:51.357Z,1001.11
2023-02-23T08:06:51.347Z,1001.20
2023-02-23T08:07:51.509Z,1001.15
2023-02-23T08:08:51.336Z,1001.11
2023-02-23T08:09:51.317Z,1001.12
2023-02-23T08:10:51.296Z,1001.18
2023-02-23T08:11:51.283Z,1001.15
2023-02-23T08:12:51.474Z,1001.13
2023-02-23T08:13:51.288Z,1001.23
2023-02-23T08:14:51.317Z,1001.17
2023-02-23T08:15:51.223Z,1001.18
2023-02-23T08:16:51.749Z,1001.25
2023-02-23T08:17:51.218Z,1001.21
2023-02-23T08:18:51.263Z,1001.22
2023-02-23T08:19:51.175Z,1001.23
2023-02-23T08:20:51.165Z,1001.26
2023-02-23T08:21:51.155Z,1001.26
2023-02-23T08:22:51.151Z,1001.27
2023-02-23T08:23:51.331Z,1001.27
2023-02-23T08:24:51.114Z,1001.35
2023-02-23T08:25:51.742Z,1001.24
2023-02-23T08:26:51.098Z,1001.31
2023-02-23T08:27:51.082Z,1001.29
2023-02-23T08:28:51.251Z,1001.31
2023-02-23T08:29:51.053Z,1001.35
2023-02-23T08:30:51.308Z,1001.36
2023-02-23T08:31:51.369Z,1001.32
2023-02-23T08:32:51.028Z,1001.36
2023-02-23T08:33:51.010Z,1001.30
2023-02-23T08:34:51.002Z,1001.36
2023-02-23T08:35:50.981Z,1001.41
2023-02-23T08:36:50.960Z,1001.39
2023-02-23T08:37:50.951Z,1001.45
2023-02-23T08:38:51.202Z,1001.43
2023-02-23T08:39:50.918Z,1001.43
2023-02-23T08:40:50.917Z,1001.43
2023-02-23T08:41:50.910Z,1001.40
2023-02-23T08:42:50.879Z,1001.39
2023-02-23T08:43:51.056Z,1001.42
2023-02-23T08:44:50.861Z,1001.42
2023-02-23T08:45:50.855Z,1001.45
2023-02-23T08:46:50.834Z,1001.47
2023-02-23T08:47:51.008Z,1001.46
2023-02-23T08:48:50.802Z,1001.51
2023-02-23T08:49:50.815Z,1001.48
2023-02-23T08:50:50.778Z,1001.47
2023-02-23T08:51:50.777Z,1001.51
2023-02-23T08:52:50.770Z,1001.51
2023-02-23T08:53:50.749Z,1001.52
2023-02-23T08:54:50.725Z,1001.49
2023-02-23T08:55:50.723Z,1001.48
2023-02-23T08:56:50.702Z,1001.50
2023-02-23T08:57:50.873Z,1001.54
2023-02-23T08:58:50.664Z,1001.55
2023-02-23T08:59:50.684Z,1001.45
2023-02-23T09:00:50.635Z,1001.51
2023-02-23T09:01:50.675Z,1001.52
2023-02-23T09:02:50.795Z,1001.54
2023-02-23T09:03:50.629Z,1001.52
2023-02-23T09:04:50.608Z,1001.53
2023-02-23T09:05:50.582Z,1001.51
2023-02-23T09:06:50.630Z,1001.58
2023-02-23T09:07:50.743Z,1001.52
2023-02-23T09:08:50.551Z,1001.61
2023-02-23T09:09:50.530Z,1001.62
2023-02-23T09:10:50.538Z,1001.55
2023-02-23T09:11:50.518Z,1001.60
2023-02-23T09:12:50.481Z,1001.59
2023-02-23T09:13:50.492Z,1001.65
2023-02-23T09:14:50.648Z,1001.60
2023-02-23T09:15:50.474Z,1001.66
2023-02-23T09:16:50.438Z,1001.61
2023-02-23T09:17:50.417Z,1001.61
2023-02-23T09:18:50.592Z,1001.64
2023-02-23T09:19:50.406Z,1001.59
2023-02-23T09:20:50.396Z,1001.69
2023-02-23T09:21:50.394Z,1001.56
2023-02-23T09:22:50.378Z,1001.67
2023-02-23T09:23:50.379Z,1001.68
2023-02-23T09:24:50.350Z,1001.61
2023-02-23T09:25:50.335Z,1001.63
2023-02-23T09:26:50.306Z,1001.67
2023-02-23T09:27:50.305Z,1001.70
2023-02-23T09:28:50.276Z,1001.66
2023-02-23T09:29:50.285Z,1001.77
2023-02-23T09:30:50.296Z,1001.69
2023-02-23T09:31:50.547Z,1001.78
2023-02-23T09:32:50.241Z,1001.68
2023-02-23T09:33:50.225Z,1001.71
2023-02-23T09:34:50.204Z,1001.72
2023-02-23T09:35:50.206Z,1001.74
2023-02-23T09:36:50.214Z,1001.71
2023-02-23T09:37:50.166Z,1001.77
2023-02-23T09:38:50.178Z,1001.78
2023-02-23T09:39:50.144Z,1001.76
2023-02-23T09:40:50.324Z,1001.81
2023-02-23T09:41:50.125Z,1001.74
2023-02-23T09:42:50.105Z,1001.83
2023-02-23T09:43:50.114Z,1001.81
2023-02-23T09:44:50.103Z,1001.82
2023-02-23T09:45:50.093Z,1001.76
2023-02-23T09:46:50.232Z,1001.78
2023-02-23T09:47:50.032Z,1001.82
2023-02-23T09:48:50.036Z,1001.84
2023-02-23T09:49:50.015Z,1001.85
2023-02-23T09:50:50.015Z,1001.85
2023-02-23T09:51:50.170Z,1001.87
2023-02-23T09:52:49.972Z,1001.82
2023-02-23T09:53:50.522Z,1001.87
2023-02-23T09:54:49.959Z,1001.82
2023-02-23T09:55:49.958Z,1001.78
2023-02-23T09:56:49.954Z,1001.82
2023-02-23T09:57:49.912Z,1001.86
2023-02-23T09:58:49.911Z,1001.82
2023-02-23T09:59:49.890Z,1001.84
2023-02-23T10:00:49.865Z,1001.86
2023-02-23T10:01:49.911Z,1001.92
2023-02-23T10:02:49.854Z,1001.90
2023-02-23T10:03:49.824Z,1001.92
2023-02-23T10:04:49.863Z,1001.93
2023-02-23T10:05:49.818Z,1001.93
2023-02-23T10:06:49.803Z,1001.93
2023-02-23T10:07:49.773Z,1001.92
2023-02-23T10:08:49.773Z,1001.88
2023-02-23T10:09:49.752Z,1001.97
2023-02-23T10:10:49.749Z,1001.91
2023-02-23T10:11:49.911Z,1001.95
2023-02-23T10:12:49.723Z,1002.02
2023-02-23T10:13:49.694Z,1001.95
2023-02-23T10:14:49.695Z,1001.94
2023-02-23T10:15:49.736Z,1001.94
2023-02-23T10:16:49.867Z,1001.97
2023-02-23T10:17:49.654Z,1002.00
2023-02-23T10:18:49.649Z,1002.01
2023-02-23T10:19:49.637Z,1001.97
2023-02-23T10:20:49.612Z,1002.05
2023-02-23T10:21:49.623Z,1002.11
2023-02-23T10:22:49.602Z,1002.08
2023-02-23T10:23:49.575Z,1002.12
2023-02-23T10:24:49.562Z,1002.11
2023-02-23T10:25:49.562Z,1002.13
2023-02-23T10:26:49.545Z,1002.16
2023-02-23T10:27:49.712Z,1002.15
2023-02-23T10:28:49.563Z,1002.15
2023-02-23T10:29:49.505Z,1002.11
2023-02-23T10:30:49.601Z,1002.14
2023-02-23T10:31:49.617Z,1002.08
2023-02-23T10:32:49.470Z,1002.17
2023-02-23T10:33:49.634Z,1002.08
2023-02-23T10:34:49.446Z,1002.13
2023-02-23T10:35:49.419Z,1002.10
2023-02-23T10:36:49.417Z,1002.13
2023-02-23T10:37:49.388Z,1002.19
2023-02-23T10:38:49.571Z,1002.20
2023-02-23T10:39:49.398Z,1002.14
2023-02-23T10:40:49.370Z,1002.16
2023-02-23T10:41:49.354Z,1002.14
2023-02-23T10:42:49.336Z,1002.13
2023-02-23T10:43:49.401Z,1002.19
2023-02-23T10:44:49.480Z,1002.16
2023-02-23T10:45:49.295Z,1002.18
2023-02-23T10:46:49.369Z,1002.21
2023-02-23T10:47:49.266Z,1002.11
2023-02-23T10:48:49.461Z,1002.22
2023-02-23T10:49:49.423Z,1002.19
2023-02-23T10:50:49.248Z,1002.19
2023-02-23T10:51:49.233Z,1002.25
2023-02-23T10:52:49.204Z,1002.22
2023-02-23T10:53:49.197Z,1002.19
2023-02-23T10:54:49.356Z,1002.16
2023-02-23T10:55:49.164Z,1002.16
2023-02-23T10:56:49.384Z,1002.21
2023-02-23T10:57:49.135Z,1002.20
2023-02-23T10:58:49.132Z,1002.19
2023-02-23T10:59:49.104Z,1002.19
2023-02-23T11:00:49.094Z,1002.18
2023-02-23T11:02:01.339Z,1002.21
2023-02-23T11:02:50.080Z,1002.14
2023-02-23T11:03:52.314Z,1002.20
2023-02-23T11:04:50.165Z,1002.17
2023-02-23T11:05:49.106Z,1002.14
2023-02-23T11:06:49.360Z,1002.20
2023-02-23T11:07:49.041Z,1002.18
2023-02-23T11:08:49.078Z,1002.20
2023-02-23T11:09:49.696Z,1002.14
2023-02-23T11:10:48.993Z,1002.21
2023-02-23T11:11:49.147Z,1002.18
2023-02-23T11:12:48.941Z,1002.15
2023-02-23T11:13:48.982Z,1002.18
2023-02-23T11:14:48.921Z,1002.21
2023-02-23T11:15:50.890Z,1002.18
2023-02-23T11:16:49.077Z,1002.15
2023-02-23T11:17:48.880Z,1002.22
2023-02-23T11:18:48.868Z,1002.20
2023-02-23T11:19:48.857Z,1002.20
2023-02-23T11:20:48.839Z,1002.25
2023-02-23T11:21:48.970Z,1002.28
2023-02-23T11:22:48.808Z,1002.30
2023-02-23T11:23:48.794Z,1002.34
2023-02-23T11:24:48.787Z,1002.28
2023-02-23T11:25:49.575Z,1002.25
2023-02-23T11:26:48.860Z,1002.31
2023-02-23T11:27:48.935Z,1002.32
2023-02-23T11:28:48.736Z,1002.27
2023-02-23T11:29:48.775Z,1002.30
2023-02-23T11:30:48.803Z,1002.22
2023-02-23T11:31:48.795Z,1002.24
2023-02-23T11:32:48.941Z,1002.30
2023-02-23T11:33:48.680Z,1002.27
2023-02-23T11:34:48.654Z,1002.21
2023-02-23T11:35:48.633Z,1002.24
2023-02-23T11:36:48.622Z,1002.20
2023-02-23T11:37:48.628Z,1002.14
2023-02-23T11:38:48.782Z,1002.21
2023-02-23T11:39:48.583Z,1002.17
2023-02-23T11:40:48.581Z,1002.21
2023-02-23T11:41:48.571Z,1002.11
2023-02-23T11:42:48.732Z,1002.10
2023-02-23T11:43:48.561Z,1002.13
2023-02-23T11:44:48.525Z,1002.13
2023-02-23T11:45:48.585Z,1002.21
2023-02-23T11:46:48.708Z,1002.16
2023-02-23T11:47:49.763Z,1002.12
2023-02-23T11:48:48.476Z,1002.16
2023-02-23T11:49:48.462Z,1002.13
2023-02-23T11:50:48.450Z,1002.15
2023-02-23T11:51:48.629Z,1002.23
2023-02-23T11:52:48.615Z,1002.18
2023-02-23T11:53:48.420Z,1002.18
2023-02-23T11:54:48.409Z,1002.22
2023-02-23T11:55:48.428Z,1002.26
2023-02-23T11:56:48.382Z,1002.15
2023-02-23T11:57:48.362Z,1002.15
2023-02-23T11:58:48.361Z,1002.20
2023-02-23T11:59:48.340Z,1002.18
2023-02-23T12:00:48.319Z,1002.21
2023-02-23T12:01:48.310Z,1002.16
2023-02-23T12:02:48.357Z,1002.20
2023-02-23T12:03:48.481Z,1002.17
2023-02-23T12:04:48.313Z,1002.14
2023-02-23T12:05:48.260Z,1002.17
2023-02-23T12:06:48.309Z,1002.16
2023-02-23T12:07:48.256Z,1002.16
2023-02-23T12:08:48.392Z,1002.16
2023-02-23T12:09:48.218Z,1002.15
2023-02-23T12:10:48.229Z,1002.15
2023-02-23T12:11:48.772Z,1002.12
2023-02-23T12:12:48.169Z,1002.12
2023-02-23T12:13:48.393Z,1002.13
2023-02-23T12:14:48.150Z,1002.14
2023-02-23T12:15:48.130Z,1002.15